createdAt,value
2023-01-19T00:02:18.252Z,15.00
2023-01-19T00:07:22.275Z,14.94
2023-01-19T00:12:25.124Z,14.87
2023-01-19T00:17:27.942Z,14.73
2023-01-19T00:22:32.076Z,14.68
2023-01-19T00:27:35.039Z,14.64
2023-01-19T00:32:37.856Z,14.62
2023-01-19T00:38:07.315Z,14.72
2023-01-19T00:43:10.211Z,14.66
2023-01-19T00:48:12.953Z,14.71
2023-01-19T00:53:17.055Z,14.70
2023-01-19T00:58:19.782Z,14.69
2023-01-19T01:03:28.074Z,14.60
2023-01-19T01:08:32.380Z,14.56
2023-01-19T01:13:35.093Z,14.45
2023-01-19T01:18:38.013Z,14.45
2023-01-19T01:23:42.077Z,14.46
2023-01-19T01:28:44.819Z,14.37
2023-01-19T01:33:50.576Z,14.39
2023-01-19T01:38:54.597Z,14.29
2023-01-19T01:43:59.985Z,14.32
2023-01-19T01:49:06.430Z,14.37
2023-01-19T01:54:16.781Z,14.28
2023-01-19T01:59:26.586Z,14.29
2023-01-19T02:04:31.346Z,14.34
2023-01-19T02:09:55.019Z,14.25
2023-01-19T02:15:03.639Z,14.22
2023-01-19T02:20:10.356Z,14.28
2023-01-19T02:25:14.833Z,14.28
2023-01-19T02:30:18.126Z,14.29
2023-01-19T02:35:21.606Z,14.30
2023-01-19T02:41:14.144Z,14.31
2023-01-19T02:46:40.176Z,14.28
2023-01-19T03:11:05.797Z,14.25
2023-01-19T03:16:37.311Z,14.22
2023-01-19T03:21:45.148Z,14.29
2023-01-19T03:26:52.934Z,14.22
2023-01-19T03:32:22.132Z,14.31
2023-01-19T03:37:25.414Z,14.16
2023-01-19T03:48:42.071Z,14.18
2023-01-19T03:53:57.164Z,14.17
2023-01-19T03:59:40.669Z,14.07
2023-01-19T04:04:51.567Z,13.99
2023-01-19T04:10:21.889Z,13.99
2023-01-19T04:15:58.836Z,13.99
2023-01-19T04:28:14.147Z,13.96
2023-01-19T04:33:23.507Z,13.96
2023-01-19T04:38:28.628Z,14.00
2023-01-19T04:43:31.373Z,14.06
2023-01-19T04:48:35.586Z,14.12
2023-01-19T04:53:58.217Z,14.04
2023-01-19T04:59:52.138Z,14.05
2023-01-19T05:05:02.030Z,13.98
2023-01-19T05:10:08.184Z,13.90
2023-01-19T05:15:12.204Z,13.87
2023-01-19T05:20:55.367Z,13.91
2023-01-19T05:26:06.366Z,13.98
2023-01-19T05:31:18.561Z,13.92
2023-01-19T05:42:50.097Z,13.88
2023-01-19T05:47:52.851Z,13.86
2023-01-19T05:52:55.744Z,13.84
2023-01-19T06:09:17.997Z,13.81
2023-01-19T06:20:00.244Z,13.80
2023-01-19T06:25:06.100Z,13.77
2023-01-19T06:30:13.855Z,13.74
2023-01-19T06:35:46.688Z,13.78
2023-01-19T06:40:54.252Z,13.68
2023-01-19T06:46:02.979Z,13.68
2023-01-19T06:51:06.973Z,13.64
2023-01-19T06:56:44.600Z,13.71
2023-01-19T07:02:32.860Z,13.77
2023-01-19T07:07:39.717Z,13.75
2023-01-19T07:12:50.048Z,13.72
2023-01-19T07:17:53.074Z,13.72
2023-01-19T07:23:23.524Z,13.71
2023-01-19T07:33:51.744Z,13.65
2023-01-19T07:39:33.015Z,13.66
2023-01-19T07:45:01.302Z,13.67
2023-01-19T07:50:31.969Z,13.63
2023-01-19T07:55:53.453Z,13.65
2023-01-19T08:01:20.099Z,13.64
2023-01-19T08:06:50.028Z,13.68
2023-01-19T08:12:13.657Z,13.64
2023-01-19T08:17:23.876Z,13.63
2023-01-19T08:23:07.607Z,13.59
2023-01-19T08:28:27.889Z,13.63
2023-01-19T08:33:49.316Z,13.62
2023-01-19T08:44:34.335Z,13.65
2023-01-19T08:49:37.013Z,13.61
2023-01-19T08:54:39.923Z,13.67
2023-01-19T09:00:38.609Z,13.68
2023-01-19T09:06:34.129Z,13.67
2023-01-19T09:11:36.913Z,13.88
2023-01-19T09:16:39.690Z,14.25
2023-01-19T09:21:44.959Z,14.69
2023-01-19T09:27:06.943Z,15.12
2023-01-19T09:33:11.020Z,15.43
2023-01-19T09:38:42.327Z,15.64
2023-01-19T09:43:54.689Z,15.77
2023-01-19T09:48:58.454Z,15.78
2023-01-19T09:54:39.198Z,15.86
2023-01-19T09:59:49.325Z,15.80
2023-01-19T10:05:02.524Z,15.83
2023-01-19T10:10:30.963Z,15.87
2023-01-19T10:15:53.547Z,15.92
2023-01-19T10:21:05.790Z,16.06
2023-01-19T10:26:13.276Z,16.01
2023-01-19T10:31:21.060Z,16.07
2023-01-19T10:36:28.738Z,16.15
2023-01-19T10:41:40.736Z,16.11
2023-01-19T10:46:46.500Z,16.14
2023-01-19T10:57:37.145Z,16.63
2023-01-19T11:02:51.107Z,16.95
2023-01-19T11:08:03.544Z,17.08
2023-01-19T11:13:12.557Z,17.24
2023-01-19T11:18:25.269Z,17.61
2023-01-19T11:23:29.652Z,17.80
2023-01-19T11:28:34.653Z,17.87
2023-01-19T11:33:43.280Z,17.89
2023-01-19T11:38:48.988Z,17.84
2023-01-19T11:43:54.008Z,17.97
2023-01-19T11:49:02.206Z,18.17
2023-01-19T11:54:16.771Z,18.27
2023-01-19T11:59:19.916Z,18.22
2023-01-19T12:04:27.541Z,18.25
2023-01-19T12:09:34.104Z,18.23
2023-01-19T12:14:41.250Z,18.35
2023-01-19T12:20:01.541Z,18.59
2023-01-19T12:25:09.163Z,18.59
2023-01-19T12:30:20.744Z,18.63
2023-01-19T12:35:57.287Z,18.62
2023-01-19T12:41:26.460Z,18.58
2023-01-19T12:46:33.413Z,18.65
2023-01-19T12:51:47.023Z,18.85
2023-01-19T12:57:15.050Z,19.07
2023-01-19T13:02:45.682Z,19.01
2023-01-19T13:08:17.165Z,19.01
2023-01-19T13:13:22.634Z,18.95
2023-01-19T13:18:27.365Z,18.91
2023-01-19T13:23:55.626Z,19.18
2023-01-19T13:28:59.767Z,19.34
2023-01-19T13:34:03.375Z,19.31
2023-01-19T13:39:09.180Z,19.30
2023-01-19T13:44:15.747Z,19.22
2023-01-19T13:49:21.140Z,19.22
2023-01-19T13:54:25.970Z,19.38
2023-01-19T13:59:28.737Z,19.49
2023-01-19T14:04:33.317Z,19.54
2023-01-19T14:09:37.372Z,19.44
2023-01-19T14:14:44.432Z,19.53
2023-01-19T14:19:50.556Z,19.45
2023-01-19T14:24:54.719Z,19.56
2023-01-19T14:30:16.142Z,19.69
2023-01-19T14:35:25.552Z,19.72
2023-01-19T14:40:30.812Z,19.68
2023-01-19T14:45:36.389Z,19.65
2023-01-19T14:50:41.564Z,19.59
2023-01-19T14:55:49.984Z,19.72
2023-01-19T15:01:05.000Z,19.89
2023-01-19T15:06:07.885Z,19.86
2023-01-19T15:11:13.845Z,19.80
2023-01-19T15:16:16.975Z,19.77
2023-01-19T15:21:23.150Z,19.75
2023-01-19T15:26:27.834Z,19.86
2023-01-19T15:31:30.818Z,19.94
2023-01-19T15:36:33.565Z,19.94
2023-01-19T15:41:39.856Z,19.94
2023-01-19T15:46:42.606Z,19.95
2023-01-19T15:51:45.573Z,19.91
2023-01-19T15:56:49.793Z,19.90
2023-01-19T16:01:52.883Z,20.01
2023-01-19T16:06:55.837Z,20.08
2023-01-19T16:12:00.129Z,20.07
2023-01-19T16:17:03.009Z,20.07
2023-01-19T16:22:05.916Z,20.00
2023-01-19T16:27:10.086Z,19.97
2023-01-19T16:32:12.857Z,20.09
2023-01-19T16:37:15.671Z,20.14
2023-01-19T16:42:19.968Z,20.17
2023-01-19T16:47:22.781Z,20.13
2023-01-19T16:52:25.492Z,20.06
2023-01-19T16:57:29.925Z,20.03
2023-01-19T17:02:32.759Z,20.19
2023-01-19T17:07:35.526Z,20.24
2023-01-19T17:12:39.606Z,20.31
2023-01-19T17:17:42.330Z,20.22
2023-01-19T17:22:45.106Z,20.23
2023-01-19T17:27:49.203Z,20.16
2023-01-19T17:32:51.905Z,20.23
2023-01-19T17:37:55.951Z,20.36
2023-01-19T17:43:00.012Z,20.33
2023-01-19T17:48:02.964Z,20.33
2023-01-19T17:53:24.326Z,20.24
2023-01-19T17:58:30.833Z,20.26
2023-01-19T18:03:33.578Z,20.32
2023-01-19T18:08:39.287Z,20.43
2023-01-19T18:13:45.611Z,20.40
2023-01-19T18:18:49.588Z,20.42
2023-01-19T18:23:52.622Z,20.37
2023-01-19T18:28:57.366Z,20.38
2023-01-19T18:34:00.277Z,20.43
2023-01-19T18:39:03.173Z,20.44
2023-01-19T18:44:07.343Z,20.43
2023-01-19T18:49:10.454Z,20.41
2023-01-19T18:54:13.204Z,20.43
2023-01-19T18:59:17.302Z,20.35
2023-01-19T19:04:20.149Z,20.39
2023-01-19T19:09:22.891Z,20.56
2023-01-19T19:14:27.072Z,20.54
2023-01-19T19:19:29.795Z,20.56
2023-01-19T19:24:32.678Z,20.56
2023-01-19T19:29:36.797Z,20.49
2023-01-19T19:34:39.635Z,20.49
2023-01-19T19:40:08.417Z,20.49
2023-01-19T19:45:14.798Z,20.47
2023-01-19T19:50:18.129Z,20.50
2023-01-19T19:55:20.927Z,20.66
2023-01-19T20:00:25.066Z,20.66
2023-01-19T20:05:27.825Z,20.65
2023-01-19T20:10:32.010Z,20.79
2023-01-19T20:15:38.763Z,20.71
2023-01-19T20:20:41.567Z,20.86
2023-01-19T20:25:44.297Z,21.02
2023-01-19T20:30:48.378Z,20.71
2023-01-19T20:35:52.041Z,20.85
2023-01-19T20:40:54.802Z,20.84
2023-01-19T20:45:59.668Z,20.88
2023-01-19T20:51:03.344Z,20.93
2023-01-19T20:56:06.482Z,20.92
2023-01-19T21:01:15.736Z,20.99
2023-01-19T21:06:19.419Z,21.00
2023-01-19T21:11:23.952Z,20.94
2023-01-19T21:16:29.484Z,20.94
2023-01-19T21:21:32.382Z,20.98
2023-01-19T21:26:35.988Z,20.99
2023-01-19T21:31:40.107Z,21.04
2023-01-19T21:36:44.578Z,21.03
2023-01-19T21:41:47.319Z,21.11
2023-01-19T21:46:51.484Z,21.04
2023-01-19T21:51:55.208Z,21.03
2023-01-19T21:56:58.021Z,21.02
2023-01-19T22:02:02.287Z,21.09
2023-01-19T22:07:05.042Z,21.15
2023-01-19T22:12:09.860Z,21.16
2023-01-19T22:17:14.022Z,21.16
2023-01-19T22:22:16.789Z,21.23
2023-01-19T22:27:19.457Z,21.19
2023-01-19T22:32:23.524Z,21.06
2023-01-19T22:37:26.246Z,20.96
2023-01-19T22:42:28.946Z,20.80
2023-01-19T22:47:33.045Z,20.60
2023-01-19T22:52:35.737Z,20.49
2023-01-19T22:57:39.535Z,20.34
2023-01-19T23:02:43.812Z,20.18
2023-01-19T23:07:46.672Z,20.04
2023-01-19T23:12:49.539Z,19.89
2023-01-19T23:17:53.787Z,19.76
2023-01-19T23:22:56.515Z,19.65
2023-01-19T23:27:59.212Z,19.61
2023-01-19T23:33:03.396Z,19.40
2023-01-19T23:38:06.066Z,19.28
2023-01-19T23:43:08.793Z,19.11
2023-01-19T23:48:12.885Z,18.93
2023-01-19T23:53:15.612Z,18.87
2023-01-19T23:58:18.406Z,18.71
